sensor_id;sensor_type;location;lat;lon;timestamp;P1;durP1;ratioP1;P2;durP2;ratioP2
25627;SDS011;40915;50.826;4.356;2023-02-01T00:01:12;25.60;;;12.10;;
25627;SDS011;40915;50.826;4.356;2023-02-01T00:03:37;29.03;;;12.93;;
25627;SDS011;40915;50.826;4.356;2023-02-01T00:06:03;27.93;;;12.67;;
25627;SDS011;40915;50.826;4.356;2023-02-01T00:08:29;29.87;;;12.97;;
25627;SDS011;40915;50.826;4.356;2023-02-01T00:10:59;28.20;;;12.67;;
25627;SDS011;40915;50.826;4.356;2023-02-01T00:13:32;27.63;;;13.40;;
25627;SDS011;40915;50.826;4.356;2023-02-01T00:16:10;30.13;;;13.10;;
25627;SDS011;40915;50.826;4.356;2023-02-01T00:18:37;27.63;;;13.40;;
25627;SDS011;40915;50.826;4.356;2023-02-01T00:21:03;29.77;;;13.33;;
25627;SDS011;40915;50.826;4.356;2023-02-01T00:23:33;29.90;;;12.83;;
25627;SDS011;40915;50.826;4.356;2023-02-01T00:26:01;31.00;;;12.80;;
25627;SDS011;40915;50.826;4.356;2023-02-01T00:28:28;27.17;;;12.30;;
25627;SDS011;40915;50.826;4.356;2023-02-01T00:30:57;28.23;;;13.00;;
25627;SDS011;40915;50.826;4.356;2023-02-01T00:33:27;25.13;;;12.83;;
25627;SDS011;40915;50.826;4.356;2023-02-01T00:35:57;30.20;;;11.97;;
25627;SDS011;40915;50.826;4.356;2023-02-01T00:38:24;26.40;;;11.17;;
25627;SDS011;40915;50.826;4.356;2023-02-01T00:40:50;28.63;;;10.80;;
25627;SDS011;40915;50.826;4.356;2023-02-01T00:43:16;26.80;;;10.90;;
25627;SDS011;40915;50.826;4.356;2023-02-01T00:45:41;26.27;;;10.10;;
25627;SDS011;40915;50.826;4.356;2023-02-01T00:48:07;24.90;;;10.67;;
25627;SDS011;40915;50.826;4.356;2023-02-01T00:50:32;27.87;;;9.90;;
25627;SDS011;40915;50.826;4.356;2023-02-01T00:52:58;21.77;;;9.07;;
25627;SDS011;40915;50.826;4.356;2023-02-01T00:55:24;17.60;;;9.07;;
25627;SDS011;40915;50.826;4.356;2023-02-01T00:57:50;19.23;;;8.93;;
25627;SDS011;40915;50.826;4.356;2023-02-01T01:00:15;23.93;;;9.17;;
25627;SDS011;40915;50.826;4.356;2023-02-01T01:02:41;22.67;;;9.03;;
25627;SDS011;40915;50.826;4.356;2023-02-01T01:05:07;23.10;;;8.73;;
25627;SDS011;40915;50.826;4.356;2023-02-01T01:07:33;22.13;;;8.23;;
25627;SDS011;40915;50.826;4.356;2023-02-01T01:09:58;20.70;;;8.00;;
25627;SDS011;40915;50.826;4.356;2023-02-01T01:12:24;23.87;;;6.87;;
25627;SDS011;40915;50.826;4.356;2023-02-01T01:14:49;20.20;;;7.17;;
25627;SDS011;40915;50.826;4.356;2023-02-01T01:17:15;18.07;;;6.77;;
25627;SDS011;40915;50.826;4.356;2023-02-01T01:19:41;15.00;;;6.23;;
25627;SDS011;40915;50.826;4.356;2023-02-01T01:22:06;22.13;;;6.27;;
25627;SDS011;40915;50.826;4.356;2023-02-01T01:24:32;18.77;;;5.97;;
25627;SDS011;40915;50.826;4.356;2023-02-01T01:26:57;17.90;;;6.07;;
25627;SDS011;40915;50.826;4.356;2023-02-01T01:29:23;20.87;;;5.70;;
25627;SDS011;40915;50.826;4.356;2023-02-01T01:31:48;21.50;;;5.80;;
25627;SDS011;40915;50.826;4.356;2023-02-01T01:34:14;14.30;;;4.83;;
25627;SDS011;40915;50.826;4.356;2023-02-01T01:36:39;16.50;;;5.57;;
25627;SDS011;40915;50.826;4.356;2023-02-01T01:39:05;15.83;;;4.40;;
25627;SDS011;40915;50.826;4.356;2023-02-01T01:41:31;22.63;;;5.00;;
25627;SDS011;40915;50.826;4.356;2023-02-01T01:46:24;23.07;;;4.60;;
25627;SDS011;40915;50.826;4.356;2023-02-01T01:49:00;17.50;;;4.80;;
25627;SDS011;40915;50.826;4.356;2023-02-01T01:51:30;19.10;;;5.00;;
25627;SDS011;40915;50.826;4.356;2023-02-01T01:54:04;17.90;;;4.30;;
25627;SDS011;40915;50.826;4.356;2023-02-01T01:56:36;16.23;;;3.80;;
25627;SDS011;40915;50.826;4.356;2023-02-01T01:59:03;20.40;;;4.87;;
25627;SDS011;40915;50.826;4.356;2023-02-01T02:01:30;21.07;;;4.37;;
25627;SDS011;40915;50.826;4.356;2023-02-01T02:03:56;17.07;;;4.20;;
25627;SDS011;40915;50.826;4.356;2023-02-01T02:09:30;12.40;;;3.80;;
25627;SDS011;40915;50.826;4.356;2023-02-01T02:11:55;20.63;;;4.60;;
25627;SDS011;40915;50.826;4.356;2023-02-01T02:14:21;15.63;;;3.50;;
25627;SDS011;40915;50.826;4.356;2023-02-01T02:17:01;17.27;;;3.87;;
25627;SDS011;40915;50.826;4.356;2023-02-01T02:19:58;15.70;;;3.73;;
25627;SDS011;40915;50.826;4.356;2023-02-01T02:30:59;14.50;;;3.50;;
25627;SDS011;40915;50.826;4.356;2023-02-01T02:36:29;21.77;;;4.10;;
25627;SDS011;40915;50.826;4.356;2023-02-01T02:44:49;14.50;;;3.77;;
25627;SDS011;40915;50.826;4.356;2023-02-01T02:48:01;16.03;;;3.53;;
25627;SDS011;40915;50.826;4.356;2023-02-01T02:53:39;16.40;;;4.03;;
25627;SDS011;40915;50.826;4.356;2023-02-01T02:56:43;20.57;;;3.93;;
25627;SDS011;40915;50.826;4.356;2023-02-01T02:59:28;20.80;;;3.70;;
25627;SDS011;40915;50.826;4.356;2023-02-01T03:02:14;18.33;;;3.73;;
25627;SDS011;40915;50.826;4.356;2023-02-01T03:04:59;16.60;;;3.67;;
25627;SDS011;40915;50.826;4.356;2023-02-01T03:13:05;16.97;;;3.37;;
25627;SDS011;40915;50.826;4.356;2023-02-01T03:21:16;17.43;;;3.90;;
25627;SDS011;40915;50.826;4.356;2023-02-01T03:23:51;18.60;;;3.83;;
25627;SDS011;40915;50.826;4.356;2023-02-01T03:26:20;27.17;;;3.70;;
25627;SDS011;40915;50.826;4.356;2023-02-01T03:28:54;16.30;;;3.97;;
25627;SDS011;40915;50.826;4.356;2023-02-01T03:31:24;13.87;;;3.37;;
25627;SDS011;40915;50.826;4.356;2023-02-01T03:33:50;23.70;;;4.03;;
25627;SDS011;40915;50.826;4.356;2023-02-01T03:36:25;19.73;;;3.73;;
25627;SDS011;40915;50.826;4.356;2023-02-01T03:39:07;16.50;;;3.70;;
25627;SDS011;40915;50.826;4.356;2023-02-01T03:41:51;18.77;;;3.83;;
25627;SDS011;40915;50.826;4.356;2023-02-01T03:44:27;14.97;;;3.63;;
25627;SDS011;40915;50.826;4.356;2023-02-01T03:49:49;17.40;;;3.30;;
25627;SDS011;40915;50.826;4.356;2023-02-01T03:52:25;19.10;;;4.07;;
25627;SDS011;40915;50.826;4.356;2023-02-01T03:55:08;17.07;;;4.03;;
25627;SDS011;40915;50.826;4.356;2023-02-01T03:57:35;16.83;;;3.60;;
25627;SDS011;40915;50.826;4.356;2023-02-01T04:00:09;22.67;;;3.70;;
25627;SDS011;40915;50.826;4.356;2023-02-01T04:02:42;16.57;;;3.57;;
25627;SDS011;40915;50.826;4.356;2023-02-01T04:05:08;15.90;;;3.40;;
25627;SDS011;40915;50.826;4.356;2023-02-01T04:07:33;20.40;;;4.33;;
25627;SDS011;40915;50.826;4.356;2023-02-01T04:09:59;19.73;;;4.13;;
25627;SDS011;40915;50.826;4.356;2023-02-01T04:12:24;18.03;;;3.73;;
25627;SDS011;40915;50.826;4.356;2023-02-01T04:14:50;12.30;;;4.00;;
25627;SDS011;40915;50.826;4.356;2023-02-01T04:17:16;17.30;;;3.87;;
25627;SDS011;40915;50.826;4.356;2023-02-01T04:19:41;18.00;;;3.97;;
25627;SDS011;40915;50.826;4.356;2023-02-01T04:22:07;12.67;;;3.27;;
25627;SDS011;40915;50.826;4.356;2023-02-01T04:24:32;17.77;;;3.83;;
25627;SDS011;40915;50.826;4.356;2023-02-01T04:26:58;16.93;;;3.03;;
25627;SDS011;40915;50.826;4.356;2023-02-01T04:29:24;18.80;;;3.87;;
25627;SDS011;40915;50.826;4.356;2023-02-01T04:31:49;19.13;;;3.73;;
25627;SDS011;40915;50.826;4.356;2023-02-01T04:34:15;13.23;;;3.97;;
25627;SDS011;40915;50.826;4.356;2023-02-01T04:36:40;15.37;;;3.33;;
25627;SDS011;40915;50.826;4.356;2023-02-01T04:39:06;18.03;;;3.77;;
25627;SDS011;40915;50.826;4.356;2023-02-01T04:41:33;15.97;;;3.90;;
25627;SDS011;40915;50.826;4.356;2023-02-01T04:43:59;14.07;;;3.50;;
25627;SDS011;40915;50.826;4.356;2023-02-01T04:46:25;19.40;;;3.63;;
25627;SDS011;40915;50.826;4.356;2023-02-01T04:48:50;13.60;;;3.30;;
25627;SDS011;40915;50.826;4.356;2023-02-01T04:51:16;13.10;;;3.40;;
25627;SDS011;40915;50.826;4.356;2023-02-01T04:53:43;15.00;;;3.50;;
25627;SDS011;40915;50.826;4.356;2023-02-01T04:56:09;23.70;;;3.90;;
25627;SDS011;40915;50.826;4.356;2023-02-01T04:58:34;16.60;;;4.20;;
25627;SDS011;40915;50.826;4.356;2023-02-01T05:01:02;18.77;;;4.23;;
25627;SDS011;40915;50.826;4.356;2023-02-01T05:03:29;11.93;;;3.43;;
25627;SDS011;40915;50.826;4.356;2023-02-01T05:05:56;13.37;;;3.70;;
25627;SDS011;40915;50.826;4.356;2023-02-01T05:08:22;15.20;;;3.80;;
25627;SDS011;40915;50.826;4.356;2023-02-01T05:10:50;23.60;;;4.87;;
25627;SDS011;40915;50.826;4.356;2023-02-01T05:13:16;13.43;;;3.40;;
25627;SDS011;40915;50.826;4.356;2023-02-01T05:16:00;18.03;;;3.10;;
25627;SDS011;40915;50.826;4.356;2023-02-01T05:18:26;19.53;;;3.80;;
25627;SDS011;40915;50.826;4.356;2023-02-01T05:20:52;21.20;;;4.13;;
25627;SDS011;40915;50.826;4.356;2023-02-01T05:23:18;19.87;;;3.97;;
25627;SDS011;40915;50.826;4.356;2023-02-01T05:25:44;16.63;;;3.87;;
25627;SDS011;40915;50.826;4.356;2023-02-01T05:28:10;20.73;;;4.20;;
25627;SDS011;40915;50.826;4.356;2023-02-01T05:30:36;19.10;;;3.77;;
25627;SDS011;40915;50.826;4.356;2023-02-01T05:33:02;18.07;;;3.43;;
25627;SDS011;40915;50.826;4.356;2023-02-01T05:35:29;20.37;;;3.90;;
25627;SDS011;40915;50.826;4.356;2023-02-01T05:37:55;20.63;;;4.33;;
25627;SDS011;40915;50.826;4.356;2023-02-01T05:40:21;18.20;;;3.53;;
25627;SDS011;40915;50.826;4.356;2023-02-01T05:42:47;14.97;;;3.33;;
25627;SDS011;40915;50.826;4.356;2023-02-01T05:45:13;21.27;;;3.50;;
25627;SDS011;40915;50.826;4.356;2023-02-01T05:47:39;19.40;;;3.43;;
25627;SDS011;40915;50.826;4.356;2023-02-01T05:50:05;15.13;;;3.40;;
25627;SDS011;40915;50.826;4.356;2023-02-01T05:52:32;20.60;;;4.00;;
25627;SDS011;40915;50.826;4.356;2023-02-01T05:54:58;14.83;;;3.17;;
25627;SDS011;40915;50.826;4.356;2023-02-01T05:57:23;17.53;;;3.37;;
25627;SDS011;40915;50.826;4.356;2023-02-01T05:59:49;14.30;;;3.43;;
25627;SDS011;40915;50.826;4.356;2023-02-01T06:02:15;15.87;;;3.30;;
25627;SDS011;40915;50.826;4.356;2023-02-01T06:04:42;20.17;;;3.73;;
25627;SDS011;40915;50.826;4.356;2023-02-01T06:07:08;18.33;;;3.60;;
25627;SDS011;40915;50.826;4.356;2023-02-01T06:09:35;20.43;;;3.67;;
25627;SDS011;40915;50.826;4.356;2023-02-01T06:12:02;23.37;;;5.53;;
25627;SDS011;40915;50.826;4.356;2023-02-01T06:14:28;21.97;;;3.83;;
25627;SDS011;40915;50.826;4.356;2023-02-01T06:16:54;20.10;;;3.90;;
25627;SDS011;40915;50.826;4.356;2023-02-01T06:19:20;17.43;;;3.27;;
25627;SDS011;40915;50.826;4.356;2023-02-01T06:21:47;15.07;;;3.63;;
25627;SDS011;40915;50.826;4.356;2023-02-01T06:24:13;25.23;;;4.23;;
25627;SDS011;40915;50.826;4.356;2023-02-01T06:26:39;19.03;;;4.27;;
25627;SDS011;40915;50.826;4.356;2023-02-01T06:29:05;20.37;;;3.97;;
25627;SDS011;40915;50.826;4.356;2023-02-01T06:31:32;21.00;;;3.63;;
25627;SDS011;40915;50.826;4.356;2023-02-01T06:33:58;16.10;;;3.63;;
25627;SDS011;40915;50.826;4.356;2023-02-01T06:36:24;20.77;;;4.33;;
25627;SDS011;40915;50.826;4.356;2023-02-01T06:38:50;20.70;;;3.70;;
25627;SDS011;40915;50.826;4.356;2023-02-01T06:41:16;24.83;;;4.03;;
25627;SDS011;40915;50.826;4.356;2023-02-01T06:43:45;18.77;;;4.00;;
25627;SDS011;40915;50.826;4.356;2023-02-01T06:46:12;18.97;;;3.77;;
25627;SDS011;40915;50.826;4.356;2023-02-01T06:48:38;18.03;;;4.03;;
25627;SDS011;40915;50.826;4.356;2023-02-01T06:51:04;13.80;;;3.60;;
25627;SDS011;40915;50.826;4.356;2023-02-01T06:53:31;19.57;;;4.37;;
25627;SDS011;40915;50.826;4.356;2023-02-01T06:56:00;25.20;;;3.77;;
25627;SDS011;40915;50.826;4.356;2023-02-01T06:58:28;18.40;;;3.80;;
25627;SDS011;40915;50.826;4.356;2023-02-01T07:00:54;18.73;;;3.67;;
25627;SDS011;40915;50.826;4.356;2023-02-01T07:03:20;17.10;;;3.70;;
25627;SDS011;40915;50.826;4.356;2023-02-01T07:05:46;17.37;;;4.03;;
25627;SDS011;40915;50.826;4.356;2023-02-01T07:08:12;15.37;;;3.57;;
25627;SDS011;40915;50.826;4.356;2023-02-01T07:10:38;20.80;;;4.30;;
25627;SDS011;40915;50.826;4.356;2023-02-01T07:13:04;20.67;;;4.67;;
25627;SDS011;40915;50.826;4.356;2023-02-01T07:15:30;17.47;;;3.50;;
25627;SDS011;40915;50.826;4.356;2023-02-01T07:17:56;24.63;;;5.13;;
25627;SDS011;40915;50.826;4.356;2023-02-01T07:20:22;27.50;;;4.80;;
25627;SDS011;40915;50.826;4.356;2023-02-01T07:22:48;25.87;;;3.87;;
25627;SDS011;40915;50.826;4.356;2023-02-01T07:25:14;20.90;;;4.10;;
25627;SDS011;40915;50.826;4.356;2023-02-01T07:27:40;25.77;;;5.07;;
25627;SDS011;40915;50.826;4.356;2023-02-01T07:30:06;22.20;;;4.53;;
25627;SDS011;40915;50.826;4.356;2023-02-01T07:32:33;23.77;;;4.40;;
25627;SDS011;40915;50.826;4.356;2023-02-01T07:34:58;24.87;;;4.37;;
25627;SDS011;40915;50.826;4.356;2023-02-01T07:37:24;20.53;;;4.10;;
25627;SDS011;40915;50.826;4.356;2023-02-01T07:39:51;18.70;;;4.23;;
25627;SDS011;40915;50.826;4.356;2023-02-01T07:42:17;23.37;;;4.97;;
25627;SDS011;40915;50.826;4.356;2023-02-01T07:44:43;17.97;;;4.00;;
25627;SDS011;40915;50.826;4.356;2023-02-01T07:47:09;19.07;;;4.30;;
25627;SDS011;40915;50.826;4.356;2023-02-01T07:49:35;21.37;;;4.30;;
25627;SDS011;40915;50.826;4.356;2023-02-01T07:52:01;21.53;;;4.70;;
25627;SDS011;40915;50.826;4.356;2023-02-01T07:54:27;15.73;;;4.00;;
25627;SDS011;40915;50.826;4.356;2023-02-01T07:56:53;19.73;;;4.30;;
25627;SDS011;40915;50.826;4.356;2023-02-01T07:59:19;18.40;;;4.63;;
25627;SDS011;40915;50.826;4.356;2023-02-01T08:01:45;19.57;;;4.00;;
25627;SDS011;40915;50.826;4.356;2023-02-01T08:04:11;24.53;;;4.90;;
25627;SDS011;40915;50.826;4.356;2023-02-01T08:06:38;19.10;;;4.10;;
25627;SDS011;40915;50.826;4.356;2023-02-01T08:09:04;21.97;;;3.77;;
25627;SDS011;40915;50.826;4.356;2023-02-01T08:11:30;23.97;;;4.20;;
25627;SDS011;40915;50.826;4.356;2023-02-01T08:13:57;24.00;;;4.67;;
25627;SDS011;40915;50.826;4.356;2023-02-01T08:16:24;15.00;;;3.67;;
25627;SDS011;40915;50.826;4.356;2023-02-01T08:18:50;21.23;;;4.30;;
25627;SDS011;40915;50.826;4.356;2023-02-01T08:21:20;22.13;;;4.93;;
25627;SDS011;40915;50.826;4.356;2023-02-01T08:23:47;20.92;;;5.22;;
25627;SDS011;40915;50.826;4.356;2023-02-01T08:26:17;21.00;;;4.80;;
25627;SDS011;40915;50.826;4.356;2023-02-01T08:28:49;18.30;;;4.37;;
25627;SDS011;40915;50.826;4.356;2023-02-01T08:31:18;22.20;;;4.10;;
25627;SDS011;40915;50.826;4.356;2023-02-01T08:33:47;25.73;;;4.53;;
25627;SDS011;40915;50.826;4.356;2023-02-01T08:36:14;26.23;;;4.67;;
25627;SDS011;40915;50.826;4.356;2023-02-01T08:38:40;22.33;;;4.90;;
25627;SDS011;40915;50.826;4.356;2023-02-01T08:41:13;20.00;;;4.23;;
25627;SDS011;40915;50.826;4.356;2023-02-01T08:43:41;27.35;;;5.60;;
25627;SDS011;40915;50.826;4.356;2023-02-01T08:46:07;19.80;;;4.67;;
25627;SDS011;40915;50.826;4.356;2023-02-01T08:48:34;21.67;;;4.68;;
25627;SDS011;40915;50.826;4.356;2023-02-01T08:51:07;18.77;;;4.30;;
25627;SDS011;40915;50.826;4.356;2023-02-01T08:53:38;13.80;;;3.80;;
25627;SDS011;40915;50.826;4.356;2023-02-01T08:56:06;21.87;;;4.10;;
25627;SDS011;40915;50.826;4.356;2023-02-01T08:58:32;24.70;;;5.57;;
25627;SDS011;40915;50.826;4.356;2023-02-01T09:01:05;23.57;;;3.80;;
25627;SDS011;40915;50.826;4.356;2023-02-01T09:03:32;21.63;;;4.27;;
25627;SDS011;40915;50.826;4.356;2023-02-01T09:06:01;25.33;;;4.77;;
25627;SDS011;40915;50.826;4.356;2023-02-01T09:08:27;24.00;;;4.60;;
25627;SDS011;40915;50.826;4.356;2023-02-01T09:10:53;24.77;;;4.80;;
25627;SDS011;40915;50.826;4.356;2023-02-01T09:13:22;15.80;;;3.47;;
25627;SDS011;40915;50.826;4.356;2023-02-01T09:15:50;17.60;;;4.10;;
25627;SDS011;40915;50.826;4.356;2023-02-01T09:18:16;30.93;;;4.87;;
25627;SDS011;40915;50.826;4.356;2023-02-01T09:20:41;25.00;;;5.37;;
25627;SDS011;40915;50.826;4.356;2023-02-01T09:23:07;28.23;;;5.03;;
25627;SDS011;40915;50.826;4.356;2023-02-01T09:25:32;15.47;;;3.37;;
25627;SDS011;40915;50.826;4.356;2023-02-01T09:27:58;16.97;;;4.33;;
25627;SDS011;40915;50.826;4.356;2023-02-01T09:30:23;20.80;;;4.63;;
25627;SDS011;40915;50.826;4.356;2023-02-01T09:32:49;18.87;;;3.87;;
25627;SDS011;40915;50.826;4.356;2023-02-01T09:35:15;14.67;;;3.37;;
25627;SDS011;40915;50.826;4.356;2023-02-01T09:37:40;24.80;;;3.83;;
25627;SDS011;40915;50.826;4.356;2023-02-01T09:40:06;16.17;;;3.83;;
25627;SDS011;40915;50.826;4.356;2023-02-01T09:48:10;29.37;;;4.93;;
25627;SDS011;40915;50.826;4.356;2023-02-01T09:50:43;17.03;;;4.20;;
25627;SDS011;40915;50.826;4.356;2023-02-01T09:53:23;16.07;;;4.00;;
25627;SDS011;40915;50.826;4.356;2023-02-01T09:55:50;17.37;;;4.20;;
25627;SDS011;40915;50.826;4.356;2023-02-01T09:58:24;22.87;;;4.00;;
25627;SDS011;40915;50.826;4.356;2023-02-01T10:01:15;14.43;;;3.53;;
25627;SDS011;40915;50.826;4.356;2023-02-01T10:03:45;17.47;;;4.03;;
25627;SDS011;40915;50.826;4.356;2023-02-01T10:14:21;17.10;;;3.90;;
25627;SDS011;40915;50.826;4.356;2023-02-01T10:19:36;23.20;;;4.60;;
25627;SDS011;40915;50.826;4.356;2023-02-01T10:22:11;21.13;;;4.03;;
25627;SDS011;40915;50.826;4.356;2023-02-01T10:24:50;18.47;;;3.60;;
25627;SDS011;40915;50.826;4.356;2023-02-01T10:27:23;20.03;;;4.30;;
25627;SDS011;40915;50.826;4.356;2023-02-01T10:29:54;18.40;;;3.93;;
25627;SDS011;40915;50.826;4.356;2023-02-01T10:32:31;18.37;;;3.53;;
25627;SDS011;40915;50.826;4.356;2023-02-01T10:35:04;24.27;;;4.50;;
25627;SDS011;40915;50.826;4.356;2023-02-01T10:37:40;18.27;;;3.80;;
25627;SDS011;40915;50.826;4.356;2023-02-01T10:43:02;16.80;;;3.17;;
25627;SDS011;40915;50.826;4.356;2023-02-01T10:45:29;17.07;;;3.80;;
25627;SDS011;40915;50.826;4.356;2023-02-01T10:47:57;17.60;;;3.30;;
25627;SDS011;40915;50.826;4.356;2023-02-01T10:53:12;17.77;;;3.47;;
25627;SDS011;40915;50.826;4.356;2023-02-01T10:58:27;16.83;;;3.23;;
25627;SDS011;40915;50.826;4.356;2023-02-01T11:00:57;19.90;;;3.60;;
25627;SDS011;40915;50.826;4.356;2023-02-01T11:08:57;17.63;;;3.33;;
25627;SDS011;40915;50.826;4.356;2023-02-01T11:11:25;12.40;;;2.57;;
25627;SDS011;40915;50.826;4.356;2023-02-01T11:13:58;15.37;;;3.23;;
25627;SDS011;40915;50.826;4.356;2023-02-01T11:16:38;13.77;;;3.03;;
25627;SDS011;40915;50.826;4.356;2023-02-01T11:19:04;13.30;;;3.03;;
25627;SDS011;40915;50.826;4.356;2023-02-01T11:21:30;11.83;;;2.97;;
25627;SDS011;40915;50.826;4.356;2023-02-01T11:24:04;16.27;;;3.67;;
25627;SDS011;40915;50.826;4.356;2023-02-01T11:26:34;18.60;;;3.17;;
25627;SDS011;40915;50.826;4.356;2023-02-01T11:29:10;12.47;;;2.93;;
25627;SDS011;40915;50.826;4.356;2023-02-01T11:31:38;14.40;;;3.70;;
25627;SDS011;40915;50.826;4.356;2023-02-01T11:36:45;15.67;;;2.93;;
25627;SDS011;40915;50.826;4.356;2023-02-01T11:41:41;14.67;;;2.90;;
25627;SDS011;40915;50.826;4.356;2023-02-01T11:44:22;15.77;;;2.90;;
25627;SDS011;40915;50.826;4.356;2023-02-01T11:49:54;12.07;;;2.77;;
25627;SDS011;40915;50.826;4.356;2023-02-01T12:06:28;14.33;;;2.67;;
25627;SDS011;40915;50.826;4.356;2023-02-01T12:09:08;11.63;;;2.30;;
25627;SDS011;40915;50.826;4.356;2023-02-01T12:11:52;8.47;;;2.10;;
25627;SDS011;40915;50.826;4.356;2023-02-01T12:22:55;7.70;;;2.67;;
25627;SDS011;40915;50.826;4.356;2023-02-01T12:33:21;12.17;;;2.70;;
25627;SDS011;40915;50.826;4.356;2023-02-01T12:36:26;13.30;;;2.60;;
25627;SDS011;40915;50.826;4.356;2023-02-01T12:47:04;11.37;;;2.23;;
25627;SDS011;40915;50.826;4.356;2023-02-01T12:52:14;9.43;;;2.30;;
25627;SDS011;40915;50.826;4.356;2023-02-01T12:55:05;10.60;;;2.33;;
25627;SDS011;40915;50.826;4.356;2023-02-01T12:57:42;11.83;;;2.90;;
25627;SDS011;40915;50.826;4.356;2023-02-01T13:02:54;11.03;;;2.67;;
25627;SDS011;40915;50.826;4.356;2023-02-01T13:08:12;18.70;;;3.07;;
25627;SDS011;40915;50.826;4.356;2023-02-01T13:10:45;8.27;;;2.10;;
25627;SDS011;40915;50.826;4.356;2023-02-01T13:16:21;11.60;;;2.30;;
25627;SDS011;40915;50.826;4.356;2023-02-01T13:18:54;9.00;;;2.37;;
25627;SDS011;40915;50.826;4.356;2023-02-01T13:21:28;9.43;;;2.00;;
25627;SDS011;40915;50.826;4.356;2023-02-01T13:23:59;14.35;;;1.92;;
25627;SDS011;40915;50.826;4.356;2023-02-01T13:26:24;7.60;;;1.75;;
25627;SDS011;40915;50.826;4.356;2023-02-01T13:28:51;9.03;;;2.23;;
25627;SDS011;40915;50.826;4.356;2023-02-01T13:42:13;11.38;;;2.10;;
25627;SDS011;40915;50.826;4.356;2023-02-01T13:44:49;8.97;;;2.03;;
25627;SDS011;40915;50.826;4.356;2023-02-01T13:47:29;15.00;;;2.42;;
25627;SDS011;40915;50.826;4.356;2023-02-01T13:53:00;12.30;;;2.40;;
25627;SDS011;40915;50.826;4.356;2023-02-01T13:55:36;7.38;;;1.88;;
25627;SDS011;40915;50.826;4.356;2023-02-01T13:58:05;11.67;;;2.27;;
25627;SDS011;40915;50.826;4.356;2023-02-01T14:00:45;16.47;;;2.33;;
25627;SDS011;40915;50.826;4.356;2023-02-01T14:03:17;11.27;;;2.10;;
25627;SDS011;40915;50.826;4.356;2023-02-01T14:08:12;8.33;;;1.97;;
25627;SDS011;40915;50.826;4.356;2023-02-01T14:13:30;14.18;;;2.63;;
25627;SDS011;40915;50.826;4.356;2023-02-01T14:34:15;10.18;;;2.00;;
25627;SDS011;40915;50.826;4.356;2023-02-01T14:36:48;16.15;;;3.00;;
25627;SDS011;40915;50.826;4.356;2023-02-01T14:44:52;7.50;;;2.23;;
25627;SDS011;40915;50.826;4.356;2023-02-01T14:52:32;10.43;;;2.73;;
25627;SDS011;40915;50.826;4.356;2023-02-01T14:55:11;11.17;;;2.40;;
25627;SDS011;40915;50.826;4.356;2023-02-01T14:57:47;13.40;;;3.00;;
25627;SDS011;40915;50.826;4.356;2023-02-01T15:02:49;11.20;;;2.53;;
25627;SDS011;40915;50.826;4.356;2023-02-01T15:05:27;10.50;;;2.10;;
25627;SDS011;40915;50.826;4.356;2023-02-01T15:07:56;12.77;;;2.55;;
25627;SDS011;40915;50.826;4.356;2023-02-01T15:10:25;11.53;;;3.10;;
25627;SDS011;40915;50.826;4.356;2023-02-01T15:12:51;11.77;;;2.53;;
25627;SDS011;40915;50.826;4.356;2023-02-01T15:17:58;11.63;;;2.53;;
25627;SDS011;40915;50.826;4.356;2023-02-01T15:20:26;10.13;;;2.70;;
25627;SDS011;40915;50.826;4.356;2023-02-01T15:22:57;12.83;;;2.73;;
25627;SDS011;40915;50.826;4.356;2023-02-01T15:25:26;10.70;;;2.47;;
25627;SDS011;40915;50.826;4.356;2023-02-01T15:27:55;14.07;;;2.80;;
25627;SDS011;40915;50.826;4.356;2023-02-01T15:30:26;12.37;;;3.13;;
25627;SDS011;40915;50.826;4.356;2023-02-01T15:35:40;12.70;;;2.60;;
25627;SDS011;40915;50.826;4.356;2023-02-01T15:38:20;15.00;;;2.50;;
25627;SDS011;40915;50.826;4.356;2023-02-01T15:43:25;24.03;;;4.97;;
25627;SDS011;40915;50.826;4.356;2023-02-01T15:45:52;16.87;;;3.97;;
25627;SDS011;40915;50.826;4.356;2023-02-01T15:48:22;17.57;;;3.13;;
25627;SDS011;40915;50.826;4.356;2023-02-01T15:50:51;12.17;;;2.87;;
25627;SDS011;40915;50.826;4.356;2023-02-01T15:53:22;16.60;;;3.40;;
25627;SDS011;40915;50.826;4.356;2023-02-01T15:55:53;14.10;;;3.17;;
25627;SDS011;40915;50.826;4.356;2023-02-01T15:58:22;13.87;;;3.93;;
25627;SDS011;40915;50.826;4.356;2023-02-01T16:00:50;14.30;;;3.40;;
25627;SDS011;40915;50.826;4.356;2023-02-01T16:03:34;14.10;;;3.93;;
25627;SDS011;40915;50.826;4.356;2023-02-01T16:06:08;9.77;;;2.80;;
25627;SDS011;40915;50.826;4.356;2023-02-01T16:08:55;13.53;;;2.93;;
25627;SDS011;40915;50.826;4.356;2023-02-01T16:11:39;16.83;;;3.23;;
25627;SDS011;40915;50.826;4.356;2023-02-01T16:14:07;19.37;;;3.77;;
25627;SDS011;40915;50.826;4.356;2023-02-01T16:16:32;11.97;;;2.47;;
25627;SDS011;40915;50.826;4.356;2023-02-01T16:18:58;12.90;;;2.97;;
25627;SDS011;40915;50.826;4.356;2023-02-01T16:21:23;16.50;;;3.47;;
25627;SDS011;40915;50.826;4.356;2023-02-01T16:23:52;14.50;;;3.13;;
25627;SDS011;40915;50.826;4.356;2023-02-01T16:26:18;17.70;;;3.80;;
25627;SDS011;40915;50.826;4.356;2023-02-01T16:28:45;14.30;;;3.03;;
25627;SDS011;40915;50.826;4.356;2023-02-01T16:31:14;19.03;;;3.73;;
25627;SDS011;40915;50.826;4.356;2023-02-01T16:33:50;17.03;;;3.50;;
25627;SDS011;40915;50.826;4.356;2023-02-01T16:36:17;12.80;;;3.47;;
25627;SDS011;40915;50.826;4.356;2023-02-01T16:38:43;15.07;;;3.63;;
25627;SDS011;40915;50.826;4.356;2023-02-01T16:41:15;15.07;;;3.97;;
25627;SDS011;40915;50.826;4.356;2023-02-01T16:43:43;18.33;;;4.07;;
25627;SDS011;40915;50.826;4.356;2023-02-01T16:46:13;18.00;;;3.83;;
25627;SDS011;40915;50.826;4.356;2023-02-01T16:48:41;14.07;;;3.10;;
25627;SDS011;40915;50.826;4.356;2023-02-01T16:51:16;19.67;;;3.20;;
25627;SDS011;40915;50.826;4.356;2023-02-01T16:53:42;18.70;;;3.80;;
25627;SDS011;40915;50.826;4.356;2023-02-01T16:56:16;21.80;;;4.07;;
25627;SDS011;40915;50.826;4.356;2023-02-01T16:58:43;15.50;;;3.90;;
25627;SDS011;40915;50.826;4.356;2023-02-01T17:01:11;22.07;;;4.87;;
25627;SDS011;40915;50.826;4.356;2023-02-01T17:03:38;16.33;;;3.53;;
25627;SDS011;40915;50.826;4.356;2023-02-01T17:06:04;16.83;;;3.73;;
25627;SDS011;40915;50.826;4.356;2023-02-01T17:08:33;14.13;;;3.17;;
25627;SDS011;40915;50.826;4.356;2023-02-01T17:11:05;11.83;;;3.20;;
25627;SDS011;40915;50.826;4.356;2023-02-01T17:13:31;14.87;;;3.73;;
25627;SDS011;40915;50.826;4.356;2023-02-01T17:18:33;16.20;;;3.20;;
25627;SDS011;40915;50.826;4.356;2023-02-01T17:21:00;14.27;;;3.47;;
25627;SDS011;40915;50.826;4.356;2023-02-01T17:23:28;17.30;;;3.57;;
25627;SDS011;40915;50.826;4.356;2023-02-01T17:25:54;17.97;;;3.73;;
25627;SDS011;40915;50.826;4.356;2023-02-01T17:28:21;22.67;;;4.73;;
25627;SDS011;40915;50.826;4.356;2023-02-01T17:30:47;9.87;;;3.10;;
25627;SDS011;40915;50.826;4.356;2023-02-01T17:33:17;14.07;;;3.60;;
25627;SDS011;40915;50.826;4.356;2023-02-01T17:35:47;15.47;;;4.30;;
25627;SDS011;40915;50.826;4.356;2023-02-01T17:38:13;16.37;;;4.23;;
25627;SDS011;40915;50.826;4.356;2023-02-01T17:40:38;15.37;;;3.20;;
25627;SDS011;40915;50.826;4.356;2023-02-01T17:43:04;20.60;;;3.67;;
25627;SDS011;40915;50.826;4.356;2023-02-01T17:48:01;15.23;;;4.00;;
25627;SDS011;40915;50.826;4.356;2023-02-01T17:50:28;17.87;;;3.60;;
25627;SDS011;40915;50.826;4.356;2023-02-01T17:52:55;20.00;;;3.87;;
25627;SDS011;40915;50.826;4.356;2023-02-01T17:55:23;17.00;;;3.83;;
25627;SDS011;40915;50.826;4.356;2023-02-01T17:57:49;17.40;;;3.93;;